sim
Sign-in with your pilot id or email,
or register
Callsign
Passwort

Schedule Details

Flight Number: DLH2153 (1)
Departure: Stuttgart Airport (EDDS) at 05:05
Arrival: Munich Airport (EDDM) at 05:50
Route: Lufthansa Passenger Schedule. Enter filed route here before submitting Pirep.

Weather Information
Getting current METAR information for EDDS 261820Z 22009KT 160V270 9999 -RA FEW013 BKN028 07/05 Q1001 NOSIG
Getting current METAR information for EDDM 261820Z 24020G32KT 9999 -RA OVC023 07/04 Q1001 NOSIG

Schedule Frequency

Route Map